Wetterstation Vordersexau
Wetterdaten: Woche 26.09.16 - 02.10.16 (KW39)
Datum Zeit Temp. A. Feuchte A. Luftdruck Regen Wind Richtung Taupunkt Windchill Windben
26.09.2016 00:00 15,2 C 82 % 1018,7 hPa 0,0 l/m 0,0 km/h O-SO 12,1 C 15,2 C 0,0 km/h
26.09.2016 01:00 14,9 C 82 % 1018,8 hPa 0,0 l/m 0,0 km/h O-SO 11,9 C 14,9 C 0,0 km/h
26.09.2016 02:00 14,6 C 82 % 1019,2 hPa 0,0 l/m 0,0 km/h O-SO 11,6 C 14,6 C 0,0 km/h
26.09.2016 03:00 14,9 C 82 % 1019,3 hPa 0,0 l/m 0,0 km/h O 11,9 C 14,9 C 0,0 km/h
26.09.2016 04:00 14,8 C 81 % 1019,0 hPa 0,0 l/m 0,0 km/h O-NO 11,6 C 14,8 C 0,0 km/h
26.09.2016 05:00 13,9 C 81 % 1019,2 hPa 0,0 l/m 0,0 km/h O-SO 10,7 C 13,9 C 0,0 km/h
26.09.2016 06:00 13,4 C 80 % 1019,3 hPa 0,0 l/m 0,0 km/h O-SO 10,0 C 13,4 C 0,0 km/h
26.09.2016 07:00 14,1 C 80 % 1019,3 hPa 0,0 l/m 0,0 km/h O-SO 10,7 C 14,1 C 0,0 km/h
26.09.2016 08:00 14,7 C 79 % 1019,7 hPa 0,0 l/m 0,0 km/h N-NO 11,1 C 14,7 C 0,0 km/h
26.09.2016 09:00 16,5 C 81 % 1019,8 hPa 0,0 l/m 0,0 km/h N-NO 13,2 C 16,5 C 0,0 km/h
26.09.2016 10:00 17,9 C 81 % 1019,9 hPa 0,0 l/m 0,0 km/h N-NO 14,6 C 17,9 C 0,0 km/h
26.09.2016 11:00 19,1 C 76 % 1020,0 hPa 0,0 l/m 0,0 km/h NW 14,8 C 19,1 C 0,0 km/h
26.09.2016 12:00 22,1 C 67 % 1019,6 hPa 0,0 l/m 0,0 km/h W-NW 15,7 C 22,1 C 0,0 km/h
26.09.2016 13:00 24,0 C 62 % 1019,2 hPa 0,0 l/m 0,0 km/h N 16,3 C 24,0 C 0,0 km/h
26.09.2016 14:00 24,9 C 57 % 1018,2 hPa 0,0 l/m 8,4 km/h N-NO 15,8 C 24,4 C 4,7 km/h
26.09.2016 15:00 24,1 C 57 % 1017,9 hPa 0,0 l/m 0,0 km/h W-NW 15,0 C 24,1 C 0,0 km/h
26.09.2016 16:00 24,6 C 56 % 1017,7 hPa 0,0 l/m 0,0 km/h N 15,2 C 24,6 C 0,0 km/h
26.09.2016 17:00 27,8 C 50 % 1017,6 hPa 0,0 l/m 0,0 km/h N-NO 16,4 C 27,8 C 0,0 km/h
26.09.2016 18:00 24,4 C 53 % 1017,8 hPa 0,0 l/m 24,6 km/h N 14,2 C 21,4 C 13,7 km/h
26.09.2016 19:00 18,6 C 70 % 1018,5 hPa 0,0 l/m 0,0 km/h N 13,0 C 18,6 C 0,0 km/h
26.09.2016 20:00 17,5 C 74 % 1019,0 hPa 0,0 l/m 0,0 km/h NO 12,8 C 17,5 C 0,0 km/h
26.09.2016 21:00 16,3 C 76 % 1019,5 hPa 0,0 l/m 0,0 km/h O-NO 12,1 C 16,3 C 0,0 km/h
26.09.2016 22:00 15,2 C 80 % 1019,7 hPa 0,0 l/m 0,0 km/h O-NO 11,8 C 15,2 C 0,0 km/h
26.09.2016 23:00 14,5 C 82 % 1019,9 hPa 0,0 l/m 0,0 km/h O-NO 11,5 C 14,5 C 0,0 km/h
27.09.2016 00:00 14,1 C 82 % 1019,6 hPa 0,0 l/m 0,0 km/h O-NO 11,1 C 14,1 C 0,0 km/h
27.09.2016 01:00 14,3 C 83 % 1019,5 hPa 0,0 l/m 0,0 km/h O-NO 11,5 C 14,3 C 0,0 km/h
27.09.2016 02:00 14,1 C 82 % 1019,8 hPa 0,0 l/m 0,0 km/h O-NO 11,1 C 14,1 C 0,0 km/h
27.09.2016 03:00 13,6 C 82 % 1020,1 hPa 0,0 l/m 0,0 km/h O-NO 10,6 C 13,6 C 0,0 km/h
27.09.2016 04:00 13,0 C 83 % 1020,2 hPa 0,0 l/m 0,0 km/h O-NO 10,2 C 13,0 C 0,0 km/h
27.09.2016 05:00 13,3 C 82 % 1020,6 hPa 0,0 l/m 0,0 km/h O-NO 10,3 C 13,3 C 0,0 km/h
27.09.2016 06:00 13,3 C 81 % 1020,7 hPa 0,0 l/m 0,0 km/h O-NO 10,1 C 13,3 C 0,0 km/h
27.09.2016 07:00 13,6 C 80 % 1021,3 hPa 0,0 l/m 0,0 km/h O-NO 10,2 C 13,6 C 0,0 km/h
27.09.2016 08:00 14,0 C 79 % 1021,9 hPa 0,5 l/m 0,0 km/h O-NO 10,4 C 14,0 C 0,0 km/h
27.09.2016 09:00 15,1 C 79 % 1022,2 hPa 0,0 l/m 0,0 km/h NO 11,5 C 15,1 C 0,0 km/h
27.09.2016 10:00 15,9 C 81 % 1023,1 hPa 0,0 l/m 0,0 km/h N 12,6 C 15,9 C 0,0 km/h
27.09.2016 11:00 16,5 C 83 % 1023,6 hPa 0,0 l/m 0,0 km/h SO 13,6 C 16,5 C 0,0 km/h
27.09.2016 12:00 21,4 C 77 % 1023,3 hPa 0,0 l/m 0,0 km/h W-SW 17,2 C 21,4 C 0,0 km/h
27.09.2016 13:00 25,3 C 61 % 1023,2 hPa 0,0 l/m 0,0 km/h N-NO 17,2 C 25,3 C 0,0 km/h
27.09.2016 14:00 25,9 C 53 % 1023,3 hPa 0,0 l/m 8,4 km/h N-NO 15,6 C 25,5 C 4,7 km/h
27.09.2016 15:00 25,9 C 54 % 1023,1 hPa 0,0 l/m 0,0 km/h N 15,9 C 25,9 C 0,0 km/h
27.09.2016 16:00 25,9 C 54 % 1022,9 hPa 0,0 l/m 7,1 km/h N-NW 15,9 C 25,7 C 4,0 km/h
27.09.2016 17:00 30,3 C 42 % 1022,7 hPa 0,0 l/m 0,0 km/h N-NW 15,9 C 30,3 C 0,0 km/h
27.09.2016 18:00 29,2 C 43 % 1023,0 hPa 0,0 l/m 0,0 km/h N-NO 15,3 C 29,2 C 0,0 km/h
27.09.2016 19:00 21,3 C 58 % 1023,8 hPa 0,0 l/m 0,0 km/h N-NO 12,7 C 21,3 C 0,0 km/h
27.09.2016 20:00 16,1 C 74 % 1024,3 hPa 0,0 l/m 0,0 km/h N-NO 11,5 C 16,1 C 0,0 km/h
27.09.2016 21:00 14,1 C 79 % 1024,9 hPa 0,0 l/m 0,0 km/h O-NO 10,5 C 14,1 C 0,0 km/h
27.09.2016 22:00 13,1 C 82 % 1025,1 hPa 0,0 l/m 0,0 km/h SO 10,1 C 13,1 C 0,0 km/h
27.09.2016 23:00 12,4 C 83 % 1025,3 hPa 0,0 l/m 0,0 km/h N-NO 9,6 C 12,4 C 0,0 km/h
28.09.2016 00:00 12,2 C 83 % 1025,6 hPa 0,0 l/m 0,0 km/h N-NO 9,4 C 12,2 C 0,0 km/h
28.09.2016 01:00 11,6 C 83 % 1025,7 hPa 0,0 l/m 0,0 km/h O-SO 8,8 C 11,6 C 0,0 km/h
28.09.2016 02:00 11,0 C 83 % 1026,1 hPa 0,0 l/m 0,0 km/h O-SO 8,2 C 11,0 C 0,0 km/h
28.09.2016 03:00 9,9 C 83 % 1025,8 hPa 0,0 l/m 0,0 km/h O-SO 7,2 C 9,9 C 0,0 km/h
28.09.2016 04:00 9,9 C 82 % 1025,8 hPa 0,0 l/m 0,0 km/h O-SO 7,0 C 9,9 C 0,0 km/h
28.09.2016 05:00 9,5 C 81 % 1026,5 hPa 0,0 l/m 0,0 km/h O-SO 6,4 C 9,5 C 0,0 km/h
28.09.2016 06:00 9,5 C 81 % 1026,2 hPa 0,0 l/m 0,0 km/h O-SO 6,4 C 9,5 C 0,0 km/h
28.09.2016 07:00 9,3 C 80 % 1026,7 hPa 0,0 l/m 0,0 km/h O-SO 6,0 C 9,3 C 0,0 km/h
28.09.2016 08:00 9,5 C 79 % 1027,2 hPa 0,0 l/m 0,0 km/h SO 6,0 C 9,5 C 0,0 km/h
28.09.2016 09:00 12,8 C 73 % 1027,3 hPa 0,0 l/m 0,0 km/h SO 8,1 C 12,8 C 0,0 km/h
28.09.2016 10:00 19,1 C 81 % 1027,6 hPa 0,0 l/m 0,0 km/h W-SW 15,8 C 19,1 C 0,0 km/h
28.09.2016 11:00 23,6 C 62 % 1027,4 hPa 0,0 l/m 8,4 km/h S-SW 15,9 C 23,0 C 4,7 km/h
28.09.2016 12:00 24,9 C 57 % 1027,0 hPa 0,0 l/m 3,2 km/h W-SW 15,8 C 24,9 C 1,8 km/h
28.09.2016 13:00 26,1 C 52 % 1026,5 hPa 0,0 l/m 27,2 km/h SW 15,5 C 23,5 C 15,1 km/h
28.09.2016 14:00 26,2 C 47 % 1026,0 hPa 0,0 l/m 19,4 km/h S-SW 14,0 C 24,3 C 10,8 km/h
28.09.2016 15:00 27,3 C 45 % 1025,4 hPa 0,0 l/m 7,8 km/h W-SW 14,3 C 27,0 C 4,3 km/h
28.09.2016 16:00 28,6 C 41 % 1025,0 hPa 0,0 l/m 9,7 km/h SW 14,0 C 28,2 C 5,4 km/h
28.09.2016 17:00 26,9 C 44 % 1024,9 hPa 0,0 l/m 0,0 km/h S-SW 13,6 C 26,9 C 0,0 km/h
28.09.2016 18:00 23,6 C 46 % 1025,0 hPa 0,0 l/m 0,0 km/h S-SO 11,3 C 23,6 C 0,0 km/h
28.09.2016 19:00 20,5 C 54 % 1025,4 hPa 0,0 l/m 1,9 km/h S-SO 10,9 C 20,5 C 1,1 km/h
28.09.2016 20:00 17,4 C 63 % 1025,7 hPa 0,0 l/m 0,0 km/h N-NO 10,3 C 17,4 C 0,0 km/h
28.09.2016 21:00 15,0 C 75 % 1026,0 hPa 0,0 l/m 0,0 km/h NO 10,6 C 15,0 C 0,0 km/h
28.09.2016 22:00 13,3 C 78 % 1025,7 hPa 0,0 l/m 0,0 km/h NO 9,5 C 13,3 C 0,0 km/h
28.09.2016 23:00 12,1 C 80 % 1025,9 hPa 0,0 l/m 0,0 km/h O-SO 8,8 C 12,1 C 0,0 km/h
29.09.2016 00:00 12,0 C 82 % 1025,6 hPa 0,0 l/m 0,0 km/h O-SO 9,0 C 12,0 C 0,0 km/h
29.09.2016 01:00 11,9 C 83 % 1025,1 hPa 0,0 l/m 0,0 km/h O-SO 9,1 C 11,9 C 0,0 km/h
29.09.2016 02:00 11,5 C 83 % 1024,9 hPa 0,0 l/m 0,0 km/h O-SO 8,7 C 11,5 C 0,0 km/h
29.09.2016 03:00 11,0 C 83 % 1024,1 hPa 0,0 l/m 0,0 km/h SO 8,2 C 11,0 C 0,0 km/h
29.09.2016 04:00 10,6 C 83 % 1023,8 hPa 0,0 l/m 0,0 km/h SO 7,8 C 10,6 C 0,0 km/h
29.09.2016 05:00 9,9 C 83 % 1023,3 hPa 0,0 l/m 0,0 km/h SO 7,2 C 9,9 C 0,0 km/h
29.09.2016 06:00 9,6 C 83 % 1022,6 hPa 0,0 l/m 0,0 km/h O-SO 6,9 C 9,6 C 0,0 km/h
29.09.2016 07:00 9,2 C 83 % 1022,1 hPa 0,0 l/m 0,0 km/h O-SO 6,5 C 9,2 C 0,0 km/h
29.09.2016 08:00 9,5 C 82 % 1022,3 hPa 0,0 l/m 0,0 km/h O-NO 6,6 C 9,5 C 0,0 km/h
29.09.2016 09:00 13,8 C 83 % 1021,9 hPa 0,0 l/m 0,0 km/h SO 11,0 C 13,8 C 0,0 km/h
29.09.2016 10:00 20,8 C 69 % 1022,0 hPa 0,0 l/m 2,6 km/h S-SW 14,9 C 20,8 C 1,4 km/h
29.09.2016 11:00 25,8 C 53 % 1021,3 hPa 0,0 l/m 0,0 km/h SW 15,5 C 25,8 C 0,0 km/h
29.09.2016 12:00 26,4 C 49 % 1020,5 hPa 0,0 l/m 20,7 km/h W-SW 14,8 C 24,4 C 11,5 km/h
29.09.2016 13:00 27,2 C 46 % 1019,8 hPa 0,0 l/m 24,0 km/h W 14,6 C 25,2 C 13,3 km/h
29.09.2016 14:00 27,4 C 44 % 1018,6 hPa 0,0 l/m 16,2 km/h W 14,0 C 26,1 C 9,0 km/h
29.09.2016 15:00 28,9 C 40 % 1017,9 hPa 0,0 l/m 21,4 km/h S 13,9 C 27,6 C 11,9 km/h
29.09.2016 16:00 29,6 C 36 % 1017,4 hPa 0,0 l/m 22,0 km/h W 12,9 C 28,5 C 12,2 km/h
29.09.2016 17:00 29,9 C 35 % 1016,5 hPa 0,0 l/m 15,6 km/h SW 12,8 C 29,2 C 8,6 km/h
29.09.2016 18:00 28,6 C 39 % 1016,4 hPa 0,0 l/m 0,0 km/h W 13,3 C 28,6 C 0,0 km/h
29.09.2016 19:00 23,1 C 49 % 1016,1 hPa 0,0 l/m 5,8 km/h N 11,8 C 23,1 C 3,2 km/h
Min-Datum _ 29.09.16 29.09.16 29.09.16 - 26.09.16 - 28.09.16 29.09.16 26.09.16
_ Min-Zeit 07:12 17:12 19:12 - 00:12 - 07:12 07:12 00:12
Minimum _ 9,2 C 35 % 1016,1 hPa - 0,0 km/h - 6,0 C 9,2 C 0,0 km/h
Max-Datum _ 27.09.16 27.09.16 28.09.16 27.09.16 28.09.16 - 27.09.16 27.09.16 28.09.16
_ Max-Zeit 17:12 01:12 10:12 08:12 13:12 - 13:12 17:12 13:12
Maximum _ 30,3 C 83 % 1027,6 hPa 0,5 l/m 27,2 km/h
SW
- 17,2 C 30,3 C 15,1 km/h
SW
Durchschnitt _ 18,0 C 70 % 1022,2 hPa #0,5 l/m 2,8 km/h O-SO 11,8 C 17,8 C 1,5 km/h
www.sexauwetter.de